Kansas City, Missouri
Traffic Map
Current Weather Conditions
Kansas City, Missouri
Scattered Clouds
Scattered Clouds
59°
Feels Like: 59°
Wind Chill: 59° Ceiling: Unl
Heat Index: 59° Visibility: 10mi
Dew Point: 56° Wind: 0mph
Humidity: 90% Direction: ° ()
Pressure: 30.07in Gusts: 0mph
Raw Report DataKMKC 231154Z 00000KT 10SM SCT010 SCT055 15/13 A3007 RMK AO2 RAE22B36E54 SLP179 P0001 60010 70010 T01500133 10178 20150 56017
Traffic Incident Summary
Active as of:
Severity:
Category:
InformationThere was an issue retrieving the traffic information for this location. Please try a different location or try again shortly.
Advertisements
Track Severe Weather on mobile